createdAt,value
2023-12-12T00:02:00.429Z,4.53
2023-12-12T00:04:28.112Z,5.13
2023-12-12T00:06:55.493Z,5.30
2023-12-12T00:09:22.724Z,4.97
2023-12-12T00:11:50.664Z,5.57
2023-12-12T00:14:17.976Z,5.22
2023-12-12T00:16:45.290Z,6.57
2023-12-12T00:19:12.631Z,6.07
2023-12-12T00:21:39.906Z,5.15
2023-12-12T00:24:07.984Z,4.78
2023-12-12T00:26:35.224Z,5.20
2023-12-12T00:29:02.641Z,4.70
2023-12-12T00:31:30.010Z,4.50
2023-12-12T00:33:57.685Z,4.93
2023-12-12T00:36:24.973Z,5.10
2023-12-12T00:38:52.411Z,4.80
2023-12-12T00:41:19.669Z,5.18
2023-12-12T00:43:47.074Z,5.15
2023-12-12T00:46:14.570Z,5.35
2023-12-12T00:48:42.167Z,5.07
2023-12-12T00:51:10.425Z,4.82
2023-12-12T00:53:37.900Z,4.68
2023-12-12T00:56:05.547Z,4.38
2023-12-12T00:58:33.060Z,4.80
2023-12-12T01:01:00.488Z,4.35
2023-12-12T01:03:28.698Z,4.82
2023-12-12T01:05:56.010Z,4.70
2023-12-12T01:08:23.420Z,5.13
2023-12-12T01:10:50.656Z,4.95
2023-12-12T01:13:18.084Z,4.88
2023-12-12T01:15:45.300Z,5.13
2023-12-12T01:18:12.645Z,5.10
2023-12-12T01:20:40.017Z,5.18
2023-12-12T01:23:07.354Z,5.22
2023-12-12T01:25:34.990Z,4.70
2023-12-12T01:28:02.306Z,4.53
2023-12-12T01:30:29.913Z,4.43
2023-12-12T01:32:57.285Z,4.55
2023-12-12T01:35:24.571Z,4.50
2023-12-12T01:37:52.019Z,4.13
2023-12-12T01:40:19.427Z,4.00
2023-12-12T01:42:46.727Z,4.00
2023-12-12T01:45:15.989Z,3.88
2023-12-12T01:47:44.707Z,3.60
2023-12-12T01:50:12.413Z,3.13
2023-12-12T01:52:39.956Z,4.00
2023-12-12T01:55:07.873Z,3.47
2023-12-12T01:57:35.314Z,3.55
2023-12-12T02:00:03.674Z,3.28
2023-12-12T02:02:39.878Z,3.22
2023-12-12T02:05:07.414Z,2.78
2023-12-12T02:07:37.155Z,2.75
2023-12-12T02:10:04.913Z,3.10
2023-12-12T02:12:33.498Z,2.72
2023-12-12T02:15:00.883Z,2.70
2023-12-12T02:17:28.596Z,2.72
2023-12-12T02:19:56.016Z,3.38
2023-12-12T02:22:23.424Z,2.60
2023-12-12T02:24:50.857Z,2.92
2023-12-12T02:27:18.197Z,3.47
2023-12-12T02:29:45.729Z,3.20
2023-12-12T02:32:13.049Z,2.80
2023-12-12T02:34:40.469Z,2.55
2023-12-12T02:37:07.724Z,3.08
2023-12-12T02:39:35.098Z,2.97
2023-12-12T02:42:02.463Z,2.75
2023-12-12T02:44:29.772Z,2.78
2023-12-12T02:46:57.109Z,3.42
2023-12-12T02:49:24.577Z,2.83
2023-12-12T02:51:52.211Z,2.60
2023-12-12T02:54:19.594Z,2.85
2023-12-12T02:56:47.107Z,3.08
2023-12-12T02:59:14.438Z,2.58
2023-12-12T03:01:41.929Z,2.78
2023-12-12T03:04:09.538Z,2.75
2023-12-12T03:06:36.914Z,2.70
2023-12-12T03:09:04.363Z,2.40
2023-12-12T03:11:32.127Z,2.75
2023-12-12T03:13:59.540Z,2.10
2023-12-12T03:16:27.145Z,2.10
2023-12-12T03:18:54.762Z,2.00
2023-12-12T03:21:22.228Z,2.40
2023-12-12T03:23:49.606Z,2.00
2023-12-12T03:26:16.926Z,1.65
2023-12-12T03:28:44.491Z,2.25
2023-12-12T03:31:11.881Z,1.75
2023-12-12T03:33:39.528Z,1.88
2023-12-12T03:36:10.669Z,1.80
2023-12-12T03:38:37.985Z,1.70
2023-12-12T03:41:05.406Z,1.92
2023-12-12T03:43:32.757Z,1.77
2023-12-12T03:46:00.093Z,1.80
2023-12-12T03:48:27.701Z,1.73
2023-12-12T03:50:55.766Z,1.90
2023-12-12T03:53:24.438Z,2.35
2023-12-12T03:55:51.678Z,1.70
2023-12-12T03:58:19.090Z,1.70
2023-12-12T04:00:46.517Z,1.30
2023-12-12T04:03:13.914Z,1.40
2023-12-12T04:05:41.730Z,1.33
2023-12-12T04:08:09.939Z,1.67
2023-12-12T04:10:37.442Z,1.88
2023-12-12T04:13:04.999Z,1.30
2023-12-12T04:15:32.712Z,1.30
2023-12-12T04:18:00.128Z,1.80
2023-12-12T04:20:27.691Z,1.88
2023-12-12T04:22:55.050Z,1.63
2023-12-12T04:25:22.753Z,1.75
2023-12-12T04:27:50.464Z,1.65
2023-12-12T04:30:18.136Z,1.60
2023-12-12T04:32:45.477Z,1.80
2023-12-12T04:35:12.884Z,1.80
2023-12-12T04:37:40.362Z,1.65
2023-12-12T04:40:08.712Z,1.67
2023-12-12T04:42:37.492Z,1.75
2023-12-12T04:45:05.413Z,1.88
2023-12-12T04:47:33.274Z,1.55
2023-12-12T04:50:01.112Z,1.83
2023-12-12T04:52:29.415Z,2.20
2023-12-12T04:54:56.772Z,1.80
2023-12-12T04:57:24.240Z,1.85
2023-12-12T04:59:51.595Z,1.52
2023-12-12T05:02:18.983Z,1.63
2023-12-12T05:04:46.211Z,1.92
2023-12-12T05:07:13.815Z,2.47
2023-12-12T05:09:41.718Z,1.70
2023-12-12T05:12:09.691Z,1.73
2023-12-12T05:14:36.933Z,1.73
2023-12-12T05:17:10.279Z,1.67
2023-12-12T05:19:38.783Z,1.75
2023-12-12T05:22:06.410Z,1.70
2023-12-12T05:24:34.471Z,1.85
2023-12-12T05:27:01.703Z,2.17
2023-12-12T05:29:29.661Z,2.53
2023-12-12T05:31:57.055Z,1.80
2023-12-12T05:34:24.550Z,2.28
2023-12-12T05:36:52.054Z,2.30
2023-12-12T05:39:19.364Z,2.30
2023-12-12T05:41:49.911Z,1.95
2023-12-12T05:44:17.593Z,2.15
2023-12-12T05:46:45.051Z,2.22
2023-12-12T05:49:12.438Z,2.20
2023-12-12T05:51:41.348Z,2.25
2023-12-12T05:54:13.703Z,2.40
2023-12-12T05:56:44.723Z,2.30
2023-12-12T05:59:15.908Z,1.80
2023-12-12T06:01:43.627Z,1.85
2023-12-12T06:04:14.822Z,2.20
2023-12-12T06:06:44.183Z,2.20
2023-12-12T06:09:13.162Z,1.95
2023-12-12T06:11:43.335Z,1.98
2023-12-12T06:14:11.333Z,2.13
2023-12-12T06:16:39.721Z,2.88
2023-12-12T06:19:07.556Z,3.15
2023-12-12T06:21:35.477Z,2.75
2023-12-12T06:24:04.067Z,2.90
2023-12-12T06:26:32.462Z,2.30
2023-12-12T06:29:00.102Z,2.50
2023-12-12T06:31:27.838Z,3.35
2023-12-12T06:33:55.487Z,3.20
2023-12-12T06:36:23.621Z,2.90
2023-12-12T06:38:50.867Z,2.97
2023-12-12T06:41:18.484Z,3.08
2023-12-12T06:43:45.807Z,3.13
2023-12-12T06:46:13.272Z,2.60
2023-12-12T06:48:40.631Z,3.15
2023-12-12T06:51:08.201Z,3.20
2023-12-12T06:53:35.449Z,3.33
2023-12-12T06:56:02.934Z,4.30
2023-12-12T06:58:30.798Z,3.10
2023-12-12T07:00:58.921Z,3.20
2023-12-12T07:03:26.301Z,4.05
2023-12-12T07:05:54.086Z,4.47
2023-12-12T07:08:23.434Z,4.32
2023-12-12T07:10:51.063Z,4.13
2023-12-12T07:13:19.675Z,4.82
2023-12-12T07:15:47.003Z,3.90
2023-12-12T07:18:15.792Z,3.70
2023-12-12T07:20:43.253Z,4.13
2023-12-12T07:23:10.662Z,4.32
2023-12-12T07:25:39.241Z,4.63
2023-12-12T07:28:06.863Z,4.45
2023-12-12T07:30:34.191Z,4.30
2023-12-12T07:33:01.664Z,4.40
2023-12-12T07:35:29.358Z,4.22
2023-12-12T07:37:57.992Z,4.25
2023-12-12T07:40:26.806Z,3.35
2023-12-12T07:42:54.306Z,4.53
2023-12-12T07:45:21.622Z,4.38
2023-12-12T07:47:49.224Z,3.70
2023-12-12T07:50:20.757Z,3.03
2023-12-12T07:52:48.966Z,3.47
2023-12-12T07:55:16.479Z,3.30
2023-12-12T07:57:45.344Z,2.90
2023-12-12T08:00:13.979Z,3.03
2023-12-12T08:02:41.931Z,3.30
2023-12-12T08:05:09.403Z,3.28
2023-12-12T08:07:37.321Z,4.25
2023-12-12T08:10:06.856Z,5.15
2023-12-12T08:12:35.561Z,5.18
2023-12-12T08:15:05.196Z,6.15
2023-12-12T08:17:33.079Z,6.47
2023-12-12T08:20:00.701Z,6.43
2023-12-12T08:22:28.362Z,6.32
2023-12-12T08:24:56.254Z,6.07
2023-12-12T08:27:23.821Z,6.30
2023-12-12T08:29:51.088Z,4.47
2023-12-12T08:32:18.528Z,2.90
2023-12-12T08:34:46.292Z,3.00
2023-12-12T08:37:14.689Z,2.67
2023-12-12T08:39:43.132Z,2.83
2023-12-12T08:42:11.772Z,2.63
2023-12-12T08:44:41.897Z,2.80
2023-12-12T08:47:09.236Z,3.47
2023-12-12T08:49:39.149Z,3.40
2023-12-12T08:52:09.712Z,3.70
2023-12-12T08:54:37.487Z,3.38
2023-12-12T08:57:07.576Z,3.20
2023-12-12T08:59:35.442Z,3.45
2023-12-12T09:02:02.914Z,3.45
2023-12-12T09:04:30.276Z,3.30
2023-12-12T09:06:57.664Z,2.78
2023-12-12T09:09:26.142Z,2.97
2023-12-12T09:11:53.507Z,2.75
2023-12-12T09:14:21.327Z,3.13
2023-12-12T09:16:48.705Z,2.55
2023-12-12T09:19:18.239Z,2.55
2023-12-12T09:21:45.721Z,2.67
2023-12-12T09:24:14.522Z,2.72
2023-12-12T09:26:42.065Z,2.45
2023-12-12T09:29:09.400Z,2.70
2023-12-12T09:31:37.044Z,2.30
2023-12-12T09:34:04.938Z,2.25
2023-12-12T09:36:33.206Z,2.55
2023-12-12T09:39:00.621Z,2.65
2023-12-12T09:41:27.982Z,2.40
2023-12-12T09:43:55.247Z,2.85
2023-12-12T09:46:24.567Z,2.47
2023-12-12T09:48:53.698Z,2.85
2023-12-12T09:51:22.873Z,2.40
2023-12-12T09:53:51.217Z,2.90
2023-12-12T09:56:19.368Z,2.63
2023-12-12T09:58:49.320Z,2.72
2023-12-12T10:01:17.453Z,2.97
2023-12-12T10:03:46.200Z,2.45
2023-12-12T10:06:14.391Z,2.97
2023-12-12T10:08:42.331Z,2.40
2023-12-12T10:11:11.469Z,2.90
2023-12-12T10:13:52.583Z,2.20
2023-12-12T10:16:20.316Z,2.30
2023-12-12T10:18:49.260Z,2.60
2023-12-12T10:21:24.347Z,2.97
2023-12-12T10:23:53.920Z,2.47
2023-12-12T10:26:34.401Z,2.45
2023-12-12T10:29:02.386Z,2.72
2023-12-12T10:31:30.313Z,3.08
2023-12-12T10:33:59.025Z,3.10
2023-12-12T10:36:26.852Z,2.38
2023-12-12T10:38:55.177Z,2.30
2023-12-12T10:41:25.995Z,2.90
2023-12-12T10:43:55.117Z,2.70
2023-12-12T10:46:24.891Z,3.10
2023-12-12T10:48:54.897Z,2.22
2023-12-12T10:51:24.775Z,2.17
2023-12-12T10:53:56.259Z,2.33
2023-12-12T10:56:24.617Z,2.50
2023-12-12T10:58:52.871Z,2.40
2023-12-12T11:01:21.015Z,2.20
2023-12-12T11:03:52.286Z,2.53
2023-12-12T11:06:20.726Z,2.50
2023-12-12T11:08:48.401Z,1.70
2023-12-12T11:11:22.575Z,2.58
2023-12-12T11:13:52.833Z,2.42
2023-12-12T11:16:20.771Z,2.97
2023-12-12T11:18:49.493Z,2.20
2023-12-12T11:21:43.161Z,2.80
2023-12-12T11:24:10.543Z,2.40
2023-12-12T11:26:38.395Z,2.50
2023-12-12T11:29:11.710Z,2.10
2023-12-12T11:31:57.154Z,2.40
2023-12-12T11:34:25.081Z,1.80
2023-12-12T11:36:59.049Z,1.80
2023-12-12T11:39:31.563Z,1.90
2023-12-12T11:42:00.577Z,2.03
2023-12-12T11:44:44.399Z,2.22
2023-12-12T11:47:16.561Z,2.08
2023-12-12T11:49:45.599Z,2.10
2023-12-12T11:52:39.028Z,2.10
2023-12-12T11:55:18.919Z,2.20
2023-12-12T11:57:46.822Z,2.55
2023-12-12T12:00:15.689Z,2.25
2023-12-12T12:02:43.287Z,1.95
2023-12-12T12:05:11.375Z,1.70
2023-12-12T12:07:41.515Z,2.15
2023-12-12T12:10:12.170Z,2.35
2023-12-12T12:12:39.547Z,2.35
2023-12-12T12:15:07.850Z,1.80
2023-12-12T12:17:36.448Z,2.00
2023-12-12T12:20:04.976Z,1.77
2023-12-12T12:22:32.995Z,2.30
2023-12-12T12:25:00.603Z,2.03
2023-12-12T12:27:28.194Z,2.03
2023-12-12T12:30:05.105Z,1.98
2023-12-12T12:32:34.162Z,1.98
2023-12-12T12:35:09.562Z,1.80
2023-12-12T12:37:38.494Z,2.30
2023-12-12T12:40:07.839Z,1.90
2023-12-12T12:42:39.846Z,1.92
2023-12-12T12:45:09.011Z,2.10
2023-12-12T12:47:36.588Z,1.52
2023-12-12T12:50:04.600Z,1.63
2023-12-12T12:52:33.245Z,1.65
2023-12-12T12:55:01.187Z,1.42
2023-12-12T12:57:28.479Z,1.52
2023-12-12T12:59:55.860Z,1.55
2023-12-12T13:02:23.232Z,1.45
2023-12-12T13:04:51.018Z,1.65
2023-12-12T13:07:18.367Z,1.65
2023-12-12T13:09:45.832Z,1.40
2023-12-12T13:12:13.122Z,1.38
2023-12-12T13:14:41.931Z,1.80
2023-12-12T13:17:10.077Z,1.40
2023-12-12T13:19:37.661Z,2.35
2023-12-12T13:22:05.365Z,1.85
2023-12-12T13:24:32.984Z,1.30
2023-12-12T13:27:00.187Z,1.27
2023-12-12T13:29:27.538Z,1.58
2023-12-12T13:31:54.796Z,1.20
2023-12-12T13:34:22.322Z,1.50
2023-12-12T13:36:49.588Z,1.42
2023-12-12T13:39:19.414Z,1.30
2023-12-12T13:41:50.038Z,1.33
2023-12-12T13:44:18.477Z,1.20
2023-12-12T13:46:46.212Z,1.13
2023-12-12T13:49:13.968Z,1.42
2023-12-12T13:51:47.114Z,1.40
2023-12-12T13:54:15.514Z,1.23
2023-12-12T13:56:44.519Z,1.40
2023-12-12T13:59:12.400Z,1.45
2023-12-12T14:01:39.935Z,1.42
2023-12-12T14:04:07.663Z,1.50
2023-12-12T14:06:35.071Z,1.40
2023-12-12T14:09:02.500Z,1.40
2023-12-12T14:11:30.406Z,1.38
2023-12-12T14:13:57.948Z,1.58
2023-12-12T14:16:29.034Z,1.80
2023-12-12T14:18:58.153Z,1.60
2023-12-12T14:21:25.403Z,1.35
2023-12-12T14:23:52.678Z,1.42
2023-12-12T14:26:23.499Z,1.30
2023-12-12T14:28:51.546Z,1.60
2023-12-12T14:31:19.719Z,1.40
2023-12-12T14:33:47.576Z,1.60
2023-12-12T14:36:15.873Z,1.17
2023-12-12T14:38:47.059Z,1.70
2023-12-12T14:41:15.391Z,1.67
2023-12-12T14:43:50.282Z,1.38
2023-12-12T14:46:18.299Z,1.10
2023-12-12T14:48:45.544Z,1.70
2023-12-12T14:51:14.930Z,1.50
2023-12-12T14:53:42.885Z,1.65
2023-12-12T14:56:11.687Z,1.70
2023-12-12T14:58:39.193Z,1.60
2023-12-12T15:01:06.936Z,1.40
2023-12-12T15:03:34.788Z,1.73
2023-12-12T15:06:04.109Z,1.55
2023-12-12T15:08:31.777Z,1.23
2023-12-12T15:14:03.001Z,1.60
2023-12-12T15:16:30.525Z,1.52
2023-12-12T15:18:58.026Z,1.80
2023-12-12T15:21:26.012Z,1.80
2023-12-12T15:23:53.277Z,1.83
2023-12-12T15:26:20.729Z,2.05
2023-12-12T15:28:48.046Z,1.50
2023-12-12T15:31:15.571Z,1.17
2023-12-12T15:33:43.047Z,1.40
2023-12-12T15:36:10.797Z,1.45
2023-12-12T15:38:38.550Z,1.70
2023-12-12T15:41:06.057Z,1.30
2023-12-12T15:43:35.386Z,1.52
2023-12-12T15:46:03.131Z,1.40
2023-12-12T15:48:30.705Z,1.58
2023-12-12T15:50:58.106Z,1.50
2023-12-12T15:53:25.854Z,1.38
2023-12-12T15:55:53.008Z,1.70
2023-12-12T15:58:21.334Z,1.60
2023-12-12T16:00:48.798Z,1.60
2023-12-12T16:03:16.101Z,1.73
2023-12-12T16:05:44.382Z,1.80
2023-12-12T16:08:13.668Z,1.77
2023-12-12T16:10:42.044Z,1.67
2023-12-12T16:13:11.782Z,1.98
2023-12-12T16:15:39.248Z,1.70
2023-12-12T16:18:06.447Z,1.67
2023-12-12T16:20:33.807Z,2.05
2023-12-12T16:23:01.337Z,2.05
2023-12-12T16:25:28.683Z,2.17
2023-12-12T16:27:57.765Z,1.77
2023-12-12T16:30:28.739Z,2.20
2023-12-12T16:33:01.201Z,2.50
2023-12-12T16:35:28.805Z,2.17
2023-12-12T16:37:56.229Z,2.30
2023-12-12T16:40:23.596Z,2.65
2023-12-12T16:42:50.969Z,2.40
2023-12-12T16:45:18.258Z,2.40
2023-12-12T16:47:45.750Z,3.15
2023-12-12T16:50:13.637Z,3.05
2023-12-12T16:52:40.846Z,3.05
2023-12-12T16:55:08.502Z,3.60
2023-12-12T16:57:37.759Z,3.28
2023-12-12T17:00:12.158Z,3.78
2023-12-12T17:02:39.819Z,4.78
2023-12-12T17:05:07.490Z,4.60
2023-12-12T17:07:35.331Z,4.50
2023-12-12T17:10:09.198Z,5.55
2023-12-12T17:12:40.332Z,4.72
2023-12-12T17:15:09.467Z,5.30
2023-12-12T17:17:36.903Z,5.40
2023-12-12T17:20:04.740Z,6.20
2023-12-12T17:22:32.252Z,7.50
2023-12-12T17:24:59.628Z,6.90
2023-12-12T17:27:27.249Z,7.60
2023-12-12T17:29:54.906Z,7.90
2023-12-12T17:32:22.464Z,7.75
2023-12-12T17:34:50.661Z,9.88
2023-12-12T17:37:18.130Z,9.38
2023-12-12T17:39:45.322Z,9.27
2023-12-12T17:42:12.692Z,9.77
2023-12-12T17:44:40.662Z,11.00
2023-12-12T17:47:08.015Z,11.27
2023-12-12T17:49:37.824Z,10.85
2023-12-12T17:52:05.725Z,11.02
2023-12-12T17:54:32.934Z,11.85
2023-12-12T17:57:00.345Z,11.18
2023-12-12T17:59:27.557Z,11.23
2023-12-12T18:01:55.627Z,12.32
2023-12-12T18:04:23.016Z,13.30
2023-12-12T18:06:50.378Z,11.75
2023-12-12T18:09:20.869Z,12.18
2023-12-12T18:11:48.244Z,12.52
2023-12-12T18:14:15.452Z,13.88
2023-12-12T18:16:42.874Z,13.18
2023-12-12T18:19:10.499Z,12.93
2023-12-12T18:21:38.783Z,13.75
2023-12-12T18:24:06.499Z,12.57
2023-12-12T18:26:33.854Z,12.52
2023-12-12T18:29:05.225Z,12.82
2023-12-12T18:31:33.395Z,12.82
2023-12-12T18:34:01.113Z,13.68
2023-12-12T18:36:28.981Z,13.13
2023-12-12T18:38:56.315Z,13.70
2023-12-12T18:41:24.322Z,14.80
2023-12-12T18:43:51.775Z,15.27
2023-12-12T18:46:19.416Z,13.55
2023-12-12T18:48:47.094Z,13.20
2023-12-12T18:51:14.476Z,13.35
2023-12-12T18:53:41.851Z,13.65
2023-12-12T18:56:10.507Z,13.30
2023-12-12T18:58:38.526Z,13.00
2023-12-12T19:01:06.080Z,11.88
2023-12-12T19:03:33.534Z,13.07
2023-12-12T19:06:00.892Z,11.50
2023-12-12T19:08:28.960Z,11.68
2023-12-12T19:10:56.357Z,12.52
2023-12-12T19:13:24.944Z,13.15
2023-12-12T19:15:53.592Z,15.43
2023-12-12T19:18:21.647Z,14.65
2023-12-12T19:20:49.151Z,13.27
2023-12-12T19:23:17.008Z,13.77
2023-12-12T19:25:44.522Z,12.88
2023-12-12T19:28:11.960Z,11.75
2023-12-12T19:30:39.400Z,11.73
2023-12-12T19:33:09.787Z,11.13
2023-12-12T19:35:39.054Z,10.90
2023-12-12T19:38:07.573Z,12.00
2023-12-12T19:40:37.712Z,11.80
2023-12-12T19:43:05.581Z,9.98
2023-12-12T19:45:32.949Z,9.98
2023-12-12T19:48:00.430Z,11.10
2023-12-12T19:50:28.098Z,10.32
2023-12-12T19:52:55.468Z,11.65
2023-12-12T19:55:24.526Z,11.70
2023-12-12T19:57:51.867Z,12.48
2023-12-12T20:00:19.659Z,13.40
2023-12-12T20:02:46.966Z,12.57
2023-12-12T20:05:14.372Z,12.43
2023-12-12T20:07:42.001Z,12.63
2023-12-12T20:10:14.329Z,12.63
2023-12-12T20:12:46.816Z,11.73
2023-12-12T20:15:16.347Z,11.07
2023-12-12T20:17:44.223Z,11.13
2023-12-12T20:20:13.219Z,10.93
2023-12-12T20:22:40.767Z,11.52
2023-12-12T20:25:08.549Z,12.07
2023-12-12T20:27:38.109Z,13.07
2023-12-12T20:30:07.161Z,12.05
2023-12-12T20:32:34.569Z,10.63
2023-12-12T20:35:04.590Z,8.95
2023-12-12T20:37:32.500Z,9.20
2023-12-12T20:39:59.985Z,14.43
2023-12-12T20:42:28.063Z,11.18
2023-12-12T20:44:56.345Z,8.90
2023-12-12T20:47:23.809Z,10.13
2023-12-12T20:49:51.498Z,8.98
2023-12-12T20:52:19.071Z,9.77
2023-12-12T20:54:46.747Z,9.38
2023-12-12T20:57:17.363Z,9.38
2023-12-12T20:59:44.708Z,9.32
2023-12-12T21:02:12.131Z,10.40
2023-12-12T21:04:42.559Z,10.48
2023-12-12T21:07:11.184Z,10.65
2023-12-12T21:09:38.537Z,10.32
2023-12-12T21:12:06.035Z,11.23
2023-12-12T21:14:33.414Z,10.13
2023-12-12T21:17:03.487Z,11.20
2023-12-12T21:19:31.381Z,11.55
2023-12-12T21:21:58.751Z,10.73
2023-12-12T21:24:26.178Z,11.20
2023-12-12T21:26:53.600Z,12.00
2023-12-12T21:29:21.012Z,11.43
2023-12-12T21:31:48.556Z,11.88
2023-12-12T21:34:16.122Z,12.38
2023-12-12T21:36:43.511Z,12.93
2023-12-12T21:39:10.913Z,12.18
2023-12-12T21:41:41.745Z,13.75
2023-12-12T21:44:09.180Z,12.95
2023-12-12T21:46:36.744Z,14.90
2023-12-12T21:49:04.298Z,12.95
2023-12-12T21:51:31.639Z,11.45
2023-12-12T21:53:58.986Z,12.02
2023-12-12T21:56:26.310Z,11.55
2023-12-12T21:58:57.156Z,12.50
2023-12-12T22:01:25.836Z,11.07
2023-12-12T22:03:53.249Z,11.30
2023-12-12T22:06:20.505Z,10.90
2023-12-12T22:08:47.864Z,11.32
2023-12-12T22:11:16.500Z,12.18
2023-12-12T22:13:44.746Z,12.98
2023-12-12T22:16:26.150Z,13.20
2023-12-12T22:18:57.600Z,14.05
2023-12-12T22:21:28.403Z,15.07
2023-12-12T22:23:56.441Z,14.55
2023-12-12T22:26:24.203Z,14.88
2023-12-12T22:28:52.700Z,15.23
2023-12-12T22:31:19.995Z,14.85
2023-12-12T22:33:47.410Z,14.13
2023-12-12T22:36:21.004Z,15.18
2023-12-12T22:38:49.982Z,14.48
2023-12-12T22:41:21.493Z,15.30
2023-12-12T22:43:49.891Z,13.88
2023-12-12T22:46:21.148Z,14.95
2023-12-12T22:48:49.880Z,13.68
2023-12-12T22:51:20.060Z,13.52
2023-12-12T22:53:47.511Z,13.27
2023-12-12T22:56:15.485Z,10.55
2023-12-12T22:58:43.301Z,13.10
2023-12-12T23:01:14.217Z,11.73
2023-12-12T23:03:41.529Z,11.45
2023-12-12T23:06:09.261Z,11.18
2023-12-12T23:08:36.786Z,10.70
2023-12-12T23:11:04.726Z,11.75
2023-12-12T23:13:32.005Z,11.40
2023-12-12T23:15:59.584Z,13.23
2023-12-12T23:18:26.979Z,16.33
2023-12-12T23:20:56.499Z,12.73
2023-12-12T23:23:24.477Z,10.93
2023-12-12T23:25:51.884Z,11.80
2023-12-12T23:28:19.394Z,11.30
2023-12-12T23:31:00.516Z,9.73
2023-12-12T23:33:35.083Z,8.48
2023-12-12T23:36:02.517Z,9.52
2023-12-12T23:38:29.923Z,8.95
2023-12-12T23:40:57.300Z,9.00
2023-12-12T23:43:24.688Z,8.40
2023-12-12T23:45:52.157Z,7.22
2023-12-12T23:48:19.755Z,5.93
2023-12-12T23:50:47.189Z,6.47
2023-12-12T23:53:14.447Z,5.50
2023-12-12T23:55:42.415Z,6.30
2023-12-12T23:58:09.817Z,6.03
